createdAt,value
2022-11-30T00:01:13.420Z,50.95
2022-11-30T00:03:40.753Z,44.78
2022-11-30T00:06:09.257Z,44.10
2022-11-30T00:08:36.439Z,40.00
2022-11-30T00:11:13.959Z,35.63
2022-11-30T00:13:41.961Z,43.10
2022-11-30T00:16:09.654Z,37.10
2022-11-30T00:18:37.534Z,45.22
2022-11-30T00:21:05.852Z,49.97
2022-11-30T00:23:36.975Z,47.80
2022-11-30T00:26:05.192Z,56.72
2022-11-30T00:28:33.003Z,47.58
2022-11-30T00:31:03.273Z,53.95
2022-11-30T00:33:35.023Z,58.47
2022-11-30T00:36:03.530Z,59.93
2022-11-30T00:38:32.236Z,52.22
2022-11-30T00:40:59.597Z,50.95
2022-11-30T00:43:26.752Z,45.08
2022-11-30T00:45:56.271Z,53.75
2022-11-30T00:48:23.507Z,42.25
2022-11-30T00:50:51.103Z,51.80
2022-11-30T00:53:18.875Z,43.00
2022-11-30T00:55:48.201Z,49.47
2022-11-30T00:58:18.155Z,60.05
2022-11-30T01:00:50.122Z,44.22
2022-11-30T01:03:17.532Z,45.78
2022-11-30T01:05:44.769Z,49.13
2022-11-30T01:08:14.764Z,48.42
2022-11-30T01:10:45.347Z,48.35
2022-11-30T01:13:13.237Z,50.05
2022-11-30T01:15:46.392Z,56.65
2022-11-30T01:18:13.609Z,55.55
2022-11-30T01:20:42.364Z,50.22
2022-11-30T01:23:12.342Z,56.63
2022-11-30T01:25:40.516Z,58.08
2022-11-30T01:28:11.388Z,45.03
2022-11-30T01:30:38.610Z,55.08
2022-11-30T01:33:10.641Z,57.88
2022-11-30T01:35:37.790Z,56.60
2022-11-30T01:38:09.706Z,60.67
2022-11-30T01:40:41.668Z,66.38
2022-11-30T01:43:19.379Z,52.92
2022-11-30T01:45:48.644Z,63.30
2022-11-30T01:48:22.891Z,58.65
2022-11-30T01:50:50.037Z,54.28
2022-11-30T01:53:17.290Z,53.35
2022-11-30T01:55:48.579Z,51.70
2022-11-30T01:58:25.296Z,63.97
2022-11-30T02:00:54.947Z,57.30
2022-11-30T02:03:36.069Z,67.25
2022-11-30T02:06:08.318Z,61.65
2022-11-30T02:08:35.749Z,48.15
2022-11-30T02:11:13.911Z,59.72
2022-11-30T02:14:02.147Z,48.28
2022-11-30T02:16:52.829Z,58.78
2022-11-30T02:19:38.902Z,59.70
2022-11-30T02:22:06.053Z,58.00
2022-11-30T02:24:45.310Z,53.70
2022-11-30T02:27:20.983Z,54.75
2022-11-30T02:29:51.149Z,61.92
2022-11-30T02:32:29.730Z,62.42
2022-11-30T02:34:58.214Z,51.15
2022-11-30T02:37:26.193Z,57.22
2022-11-30T02:39:53.340Z,51.75
2022-11-30T02:42:20.492Z,55.47
2022-11-30T02:44:53.047Z,54.30
2022-11-30T02:47:31.319Z,63.08
2022-11-30T02:50:19.739Z,54.97
2022-11-30T02:52:47.437Z,67.15
2022-11-30T02:55:17.182Z,59.15
2022-11-30T02:57:44.413Z,57.33
2022-11-30T03:00:12.880Z,56.35
2022-11-30T03:02:40.274Z,67.75
2022-11-30T03:05:08.053Z,61.65
2022-11-30T03:07:35.284Z,52.50
2022-11-30T03:10:02.575Z,58.08
2022-11-30T03:12:29.891Z,61.53
2022-11-30T03:15:02.071Z,61.28
2022-11-30T03:17:31.653Z,60.15
2022-11-30T03:20:00.656Z,71.72
2022-11-30T03:22:27.859Z,63.22
2022-11-30T03:24:55.166Z,57.05
2022-11-30T03:27:22.932Z,63.28
2022-11-30T03:29:50.146Z,57.38
2022-11-30T03:32:17.376Z,54.63
2022-11-30T03:34:44.693Z,63.75
2022-11-30T03:37:12.190Z,47.47
2022-11-30T03:39:39.404Z,51.35
2022-11-30T03:42:06.564Z,48.75
2022-11-30T03:44:33.747Z,58.42
2022-11-30T03:47:01.206Z,50.97
2022-11-30T03:49:28.476Z,51.40
2022-11-30T03:51:55.656Z,41.72
2022-11-30T03:54:22.909Z,51.20
2022-11-30T03:56:50.106Z,54.50
2022-11-30T03:59:17.299Z,52.17
2022-11-30T04:01:44.507Z,41.95
2022-11-30T04:04:14.676Z,37.72
2022-11-30T04:06:41.884Z,41.28
2022-11-30T04:09:10.207Z,36.60
2022-11-30T04:11:37.408Z,44.20
2022-11-30T04:14:04.655Z,45.20
2022-11-30T04:16:32.007Z,43.63
2022-11-30T04:18:59.388Z,36.08
2022-11-30T04:21:26.579Z,43.40
2022-11-30T04:23:53.834Z,35.47
2022-11-30T04:26:21.061Z,37.28
2022-11-30T04:28:48.522Z,33.70
2022-11-30T04:31:15.752Z,33.72
2022-11-30T04:33:45.299Z,29.00
2022-11-30T04:36:19.929Z,33.95
2022-11-30T04:38:47.836Z,32.08
2022-11-30T04:41:15.233Z,35.10
2022-11-30T04:43:42.532Z,41.67
2022-11-30T04:46:09.877Z,35.13
2022-11-30T04:48:37.323Z,36.38
2022-11-30T04:51:06.084Z,32.47
2022-11-30T04:53:34.100Z,37.13
2022-11-30T04:56:05.280Z,30.95
2022-11-30T04:58:32.621Z,36.83
2022-11-30T05:00:59.882Z,41.20
2022-11-30T05:03:27.117Z,31.38
2022-11-30T05:05:54.405Z,36.00
2022-11-30T05:08:21.594Z,35.05
2022-11-30T05:10:53.213Z,38.40
2022-11-30T05:13:21.221Z,47.92
2022-11-30T05:15:48.501Z,39.90
2022-11-30T05:18:15.931Z,35.50
2022-11-30T05:20:48.170Z,39.55
2022-11-30T05:23:18.393Z,32.53
2022-11-30T05:25:45.652Z,38.10
2022-11-30T05:28:13.116Z,27.52
2022-11-30T05:30:40.763Z,31.98
2022-11-30T05:33:07.997Z,30.85
2022-11-30T05:35:37.491Z,25.25
2022-11-30T05:38:05.068Z,28.90
2022-11-30T05:40:32.678Z,32.47
2022-11-30T05:43:00.592Z,29.23
2022-11-30T05:45:28.232Z,33.22
2022-11-30T05:47:55.451Z,32.85
2022-11-30T05:50:22.673Z,34.20
2022-11-30T05:52:49.825Z,38.15
2022-11-30T05:55:17.048Z,34.17
2022-11-30T05:57:44.222Z,29.58
2022-11-30T06:00:11.620Z,28.88
2022-11-30T06:02:39.012Z,30.02
2022-11-30T06:05:06.413Z,29.00
2022-11-30T06:07:33.774Z,31.73
2022-11-30T06:10:03.396Z,27.10
2022-11-30T06:12:30.581Z,32.30
2022-11-30T06:14:57.755Z,30.58
2022-11-30T06:17:25.122Z,26.77
2022-11-30T06:19:54.649Z,29.73
2022-11-30T06:22:26.676Z,31.25
2022-11-30T06:24:53.984Z,29.40
2022-11-30T06:27:21.162Z,27.92
2022-11-30T06:29:48.404Z,29.25
2022-11-30T06:32:15.567Z,28.70
2022-11-30T06:34:42.832Z,37.20
2022-11-30T06:37:10.022Z,27.50
2022-11-30T06:40:04.748Z,28.55
2022-11-30T06:42:24.383Z,31.80
2022-11-30T06:44:51.808Z,28.27
2022-11-30T06:47:18.970Z,24.90
2022-11-30T06:49:46.102Z,30.50
2022-11-30T06:52:15.233Z,26.17
2022-11-30T06:54:44.525Z,25.98
2022-11-30T06:57:12.104Z,29.27
2022-11-30T06:59:43.502Z,25.33
2022-11-30T07:02:17.731Z,24.85
2022-11-30T07:04:46.119Z,24.10
2022-11-30T07:07:13.865Z,21.35
2022-11-30T07:09:41.576Z,29.63
2022-11-30T07:12:09.288Z,24.58
2022-11-30T07:14:36.558Z,21.30
2022-11-30T07:17:06.803Z,22.20
2022-11-30T07:19:34.541Z,23.00
2022-11-30T07:22:02.050Z,23.80
2022-11-30T07:24:48.406Z,23.38
2022-11-30T07:27:18.326Z,25.77
2022-11-30T07:29:48.585Z,26.20
2022-11-30T07:32:15.873Z,22.83
2022-11-30T07:34:43.150Z,20.95
2022-11-30T07:37:10.339Z,26.70
2022-11-30T07:39:38.091Z,18.85
2022-11-30T07:42:05.290Z,19.40
2022-11-30T07:44:32.980Z,22.15
2022-11-30T07:47:01.034Z,21.05
2022-11-30T07:49:28.202Z,21.92
2022-11-30T07:51:57.713Z,26.73
2022-11-30T07:54:24.877Z,22.15
2022-11-30T07:56:52.054Z,21.42
2022-11-30T07:59:19.194Z,18.83
2022-11-30T08:01:46.621Z,22.27
2022-11-30T08:04:14.691Z,19.08
2022-11-30T08:06:41.962Z,22.48
2022-11-30T08:09:09.235Z,16.48
2022-11-30T08:11:37.040Z,17.88
2022-11-30T08:14:04.227Z,16.25
2022-11-30T08:16:35.263Z,14.98
2022-11-30T08:19:02.517Z,17.38
2022-11-30T08:21:31.862Z,15.40
2022-11-30T08:23:59.136Z,13.68
2022-11-30T08:26:30.883Z,11.73
2022-11-30T08:28:59.129Z,11.85
2022-11-30T08:31:28.081Z,14.50
2022-11-30T08:33:59.534Z,13.18
2022-11-30T08:36:27.519Z,14.38
2022-11-30T08:38:55.059Z,12.85
2022-11-30T08:41:23.091Z,13.60
2022-11-30T08:43:50.968Z,12.73
2022-11-30T08:46:49.633Z,13.38
2022-11-30T08:49:21.106Z,14.48
2022-11-30T08:54:37.218Z,15.15
2022-11-30T08:57:04.465Z,13.27
2022-11-30T08:59:32.071Z,13.70
2022-11-30T09:01:59.249Z,20.50
2022-11-30T09:04:26.423Z,14.68
2022-11-30T09:06:53.757Z,14.32
2022-11-30T09:09:20.900Z,11.88
2022-11-30T09:11:48.098Z,13.90
2022-11-30T09:14:15.354Z,11.52
2022-11-30T09:16:42.655Z,11.27
2022-11-30T09:19:10.529Z,10.15
2022-11-30T09:21:37.844Z,10.95
2022-11-30T09:24:05.155Z,15.07
2022-11-30T09:26:32.928Z,10.65
2022-11-30T09:29:00.754Z,10.90
2022-11-30T09:31:28.396Z,8.10
2022-11-30T09:33:56.601Z,12.48
2022-11-30T09:36:27.093Z,11.27
2022-11-30T09:38:55.025Z,11.27
2022-11-30T09:41:22.223Z,11.25
2022-11-30T09:43:56.769Z,11.20
2022-11-30T09:46:27.284Z,12.45
2022-11-30T09:49:02.979Z,12.75
2022-11-30T09:51:39.931Z,10.50
2022-11-30T09:54:08.840Z,7.88
2022-11-30T09:56:39.096Z,13.05
2022-11-30T09:59:18.404Z,11.05
2022-11-30T10:01:52.109Z,8.13
2022-11-30T10:04:28.270Z,14.57
2022-11-30T10:07:18.819Z,11.85
2022-11-30T10:09:53.144Z,10.27
2022-11-30T10:12:36.801Z,11.80
2022-11-30T10:15:09.247Z,15.48
2022-11-30T10:17:36.463Z,15.68
2022-11-30T10:20:03.662Z,9.30
2022-11-30T10:22:41.224Z,15.27
2022-11-30T10:25:20.715Z,10.05
2022-11-30T10:27:47.875Z,13.93
2022-11-30T10:30:17.146Z,10.20
2022-11-30T10:32:46.273Z,8.30
2022-11-30T10:35:20.445Z,18.70
2022-11-30T10:37:48.341Z,6.90
2022-11-30T10:40:18.907Z,12.57
2022-11-30T10:42:50.162Z,11.35
2022-11-30T10:45:20.697Z,11.15
2022-11-30T10:47:50.854Z,9.43
2022-11-30T10:50:18.277Z,9.75
2022-11-30T10:52:49.890Z,9.10
2022-11-30T10:55:22.016Z,9.63
2022-11-30T10:57:51.034Z,6.90
2022-11-30T11:00:18.452Z,8.90
2022-11-30T11:02:46.925Z,5.70
2022-11-30T11:05:20.148Z,4.03
2022-11-30T11:07:49.724Z,3.03
2022-11-30T11:10:17.887Z,4.32
2022-11-30T11:12:52.748Z,2.33
2022-11-30T11:15:24.731Z,7.78
2022-11-30T11:17:52.752Z,1.98
2022-11-30T11:20:30.269Z,3.70
2022-11-30T11:22:57.958Z,5.07
2022-11-30T11:25:43.169Z,4.72
2022-11-30T11:28:14.988Z,3.45
2022-11-30T11:30:42.270Z,4.30
2022-11-30T11:33:12.567Z,5.07
2022-11-30T11:35:39.816Z,5.55
2022-11-30T11:38:23.573Z,7.40
2022-11-30T11:41:03.894Z,4.43
2022-11-30T11:43:33.023Z,5.10
2022-11-30T11:46:02.491Z,4.00
2022-11-30T11:48:37.490Z,4.25
2022-11-30T11:51:07.867Z,1.50
2022-11-30T11:53:44.835Z,6.55
2022-11-30T11:56:18.473Z,4.85
2022-11-30T11:58:51.845Z,5.85
2022-11-30T12:01:40.787Z,13.40
2022-11-30T12:04:27.427Z,2.72
2022-11-30T12:06:55.650Z,5.95
2022-11-30T12:09:28.161Z,4.47
2022-11-30T12:11:55.427Z,4.90
2022-11-30T12:14:22.595Z,1.77
2022-11-30T12:17:08.514Z,7.90
2022-11-30T12:19:38.437Z,2.03
2022-11-30T12:22:21.056Z,1.98
2022-11-30T12:25:08.773Z,2.33
2022-11-30T12:27:54.212Z,4.60
2022-11-30T12:30:25.862Z,10.05
2022-11-30T12:33:08.080Z,6.45
2022-11-30T12:35:53.809Z,3.72
2022-11-30T12:38:20.968Z,4.85
2022-11-30T12:40:50.846Z,11.85
2022-11-30T12:43:38.463Z,3.95
2022-11-30T12:46:29.517Z,2.63
2022-11-30T12:49:09.260Z,6.22
2022-11-30T12:51:59.795Z,4.60
2022-11-30T12:54:27.003Z,1.60
2022-11-30T12:57:20.450Z,7.13
2022-11-30T12:59:53.683Z,5.47
2022-11-30T13:02:29.712Z,2.10
2022-11-30T13:05:29.337Z,5.60
2022-11-30T13:08:15.973Z,3.42
2022-11-30T13:10:45.174Z,3.05
2022-11-30T13:13:14.310Z,5.55
2022-11-30T13:15:41.962Z,3.15
2022-11-30T13:18:11.821Z,4.18
2022-11-30T13:20:48.237Z,3.65
2022-11-30T13:23:15.387Z,4.22
2022-11-30T13:26:09.406Z,4.35
2022-11-30T13:28:42.814Z,4.40
2022-11-30T13:31:27.771Z,4.32
2022-11-30T13:33:55.016Z,2.05
2022-11-30T13:36:25.251Z,3.80
2022-11-30T13:39:11.161Z,3.10
2022-11-30T13:41:38.866Z,4.82
2022-11-30T13:44:06.513Z,3.67
2022-11-30T13:46:33.995Z,3.15
2022-11-30T13:49:20.520Z,7.95
2022-11-30T13:52:01.440Z,5.53
2022-11-30T13:54:42.353Z,2.03
2022-11-30T13:57:20.167Z,5.82
2022-11-30T13:59:48.649Z,2.65
2022-11-30T14:05:26.507Z,4.70
2022-11-30T14:10:30.580Z,11.25
2022-11-30T14:12:59.721Z,2.47
2022-11-30T14:15:31.625Z,2.80
2022-11-30T14:17:59.346Z,4.32
2022-11-30T14:20:32.045Z,5.20
2022-11-30T14:23:22.193Z,4.28
2022-11-30T14:25:53.387Z,4.70
2022-11-30T14:28:25.131Z,3.08
2022-11-30T14:30:52.942Z,5.43
2022-11-30T14:33:22.745Z,1.95
2022-11-30T14:35:54.161Z,4.47
2022-11-30T14:38:27.381Z,2.92
2022-11-30T14:40:55.114Z,5.28
2022-11-30T14:43:22.570Z,5.00
2022-11-30T14:46:06.374Z,11.02
2022-11-30T14:48:35.521Z,7.28
2022-11-30T14:51:04.054Z,9.23
2022-11-30T14:53:34.218Z,3.88
2022-11-30T14:56:07.513Z,5.03
2022-11-30T14:58:41.048Z,3.47
2022-11-30T15:01:16.551Z,8.05
2022-11-30T15:03:45.958Z,6.95
2022-11-30T15:06:18.419Z,6.70
2022-11-30T15:08:48.597Z,4.60
2022-11-30T15:11:17.575Z,9.38
2022-11-30T15:13:47.928Z,9.98
2022-11-30T15:16:28.694Z,5.38
2022-11-30T15:18:57.355Z,6.55
2022-11-30T15:21:33.451Z,7.47
2022-11-30T15:24:01.504Z,4.93
2022-11-30T15:26:38.599Z,8.65
2022-11-30T15:29:13.849Z,7.22
2022-11-30T15:31:42.758Z,9.40
2022-11-30T15:34:20.665Z,3.95
2022-11-30T15:36:48.253Z,7.97
2022-11-30T15:39:26.211Z,5.43
2022-11-30T15:42:00.727Z,9.45
2022-11-30T15:44:34.174Z,10.95
2022-11-30T15:47:02.699Z,7.70
2022-11-30T15:49:30.678Z,7.30
2022-11-30T15:52:17.495Z,6.40
2022-11-30T15:54:59.209Z,10.82
2022-11-30T15:57:27.592Z,11.60
2022-11-30T16:00:23.863Z,9.80
2022-11-30T16:02:51.081Z,9.93
2022-11-30T16:05:19.760Z,11.10
2022-11-30T16:07:54.689Z,11.15
2022-11-30T16:10:24.089Z,7.93
2022-11-30T16:12:52.562Z,13.65
2022-11-30T16:15:24.576Z,14.05
2022-11-30T16:17:53.532Z,12.50
2022-11-30T16:20:21.192Z,12.93
2022-11-30T16:22:48.967Z,11.40
2022-11-30T16:25:18.084Z,9.07
2022-11-30T16:27:45.554Z,11.20
2022-11-30T16:30:16.625Z,17.70
2022-11-30T16:32:44.200Z,12.32
2022-11-30T16:35:22.264Z,14.45
2022-11-30T16:37:49.762Z,10.43
2022-11-30T16:40:18.796Z,15.77
2022-11-30T16:42:46.160Z,16.73
2022-11-30T16:45:18.753Z,15.90
2022-11-30T16:47:46.000Z,27.20
2022-11-30T16:50:13.984Z,25.20
2022-11-30T16:52:42.128Z,13.48
2022-11-30T16:55:16.449Z,12.73
2022-11-30T16:57:43.724Z,24.67
2022-11-30T17:00:12.080Z,17.83
2022-11-30T17:02:42.300Z,21.38
2022-11-30T17:05:11.883Z,18.67
2022-11-30T17:07:39.215Z,22.80
2022-11-30T17:10:07.065Z,17.23
2022-11-30T17:12:35.604Z,12.27
2022-11-30T17:15:03.270Z,12.20
2022-11-30T17:17:31.160Z,13.45
2022-11-30T17:19:58.611Z,18.77
2022-11-30T17:22:25.812Z,11.55
2022-11-30T17:24:53.023Z,15.80
2022-11-30T17:27:20.171Z,13.55
2022-11-30T17:29:47.381Z,8.73
2022-11-30T17:32:14.583Z,12.70
2022-11-30T17:34:41.828Z,16.02
2022-11-30T17:37:10.401Z,15.05
2022-11-30T17:39:37.664Z,16.42
2022-11-30T17:42:04.907Z,23.80
2022-11-30T17:44:32.316Z,18.80
2022-11-30T17:46:59.578Z,26.08
2022-11-30T17:49:26.906Z,20.05
2022-11-30T17:51:55.176Z,24.45
2022-11-30T17:54:22.356Z,20.80
2022-11-30T17:56:49.675Z,27.85
2022-11-30T17:59:17.149Z,23.30
2022-11-30T18:01:44.708Z,26.65
2022-11-30T18:04:12.384Z,16.77
2022-11-30T18:06:39.632Z,17.65
2022-11-30T18:09:08.139Z,14.73
2022-11-30T18:11:35.390Z,13.02
2022-11-30T18:14:03.909Z,18.10
2022-11-30T18:16:32.779Z,18.85
2022-11-30T18:19:00.206Z,24.65
2022-11-30T18:21:29.665Z,21.45
2022-11-30T18:23:57.783Z,21.58
2022-11-30T18:26:25.951Z,24.92
2022-11-30T18:28:54.060Z,23.55
2022-11-30T18:31:21.339Z,21.73
2022-11-30T18:33:48.656Z,30.23
2022-11-30T18:36:15.940Z,30.52
2022-11-30T18:38:44.018Z,33.08
2022-11-30T18:41:11.475Z,38.45
2022-11-30T18:43:39.387Z,36.25
2022-11-30T18:46:08.366Z,35.10
2022-11-30T18:48:36.041Z,35.95
2022-11-30T18:51:16.892Z,32.92
2022-11-30T18:53:44.153Z,41.88
2022-11-30T18:56:13.233Z,38.90
2022-11-30T18:58:41.031Z,45.33
2022-11-30T19:01:12.867Z,41.65
2022-11-30T19:03:40.304Z,36.83
2022-11-30T19:06:09.008Z,41.75
2022-11-30T19:08:36.741Z,47.00
2022-11-30T19:11:08.373Z,38.78
2022-11-30T19:13:36.085Z,37.67
2022-11-30T19:16:07.475Z,45.45
2022-11-30T19:18:34.944Z,37.22
2022-11-30T19:21:02.484Z,34.92
2022-11-30T19:23:29.699Z,40.85
2022-11-30T19:26:00.703Z,39.05
2022-11-30T19:28:29.877Z,42.10
2022-11-30T19:30:57.694Z,41.58
2022-11-30T19:33:25.001Z,44.42
2022-11-30T19:35:52.228Z,52.80
2022-11-30T19:38:19.694Z,48.92
2022-11-30T19:40:47.008Z,45.05
2022-11-30T19:43:14.438Z,48.17
2022-11-30T19:45:41.660Z,50.40
2022-11-30T19:48:08.890Z,50.25
2022-11-30T19:50:37.289Z,48.58
2022-11-30T19:53:05.717Z,43.72
2022-11-30T19:55:33.519Z,49.60
2022-11-30T19:58:00.794Z,43.63
2022-11-30T20:00:27.969Z,53.80
2022-11-30T20:02:55.294Z,52.53
2022-11-30T20:05:22.612Z,53.60
2022-11-30T20:07:50.033Z,48.38
2022-11-30T20:10:17.367Z,56.95
2022-11-30T20:12:44.606Z,49.30
2022-11-30T20:15:12.066Z,53.65
2022-11-30T20:17:39.336Z,48.45
2022-11-30T20:20:06.914Z,52.28
2022-11-30T20:22:34.199Z,43.92
2022-11-30T20:25:01.455Z,47.40
2022-11-30T20:27:28.776Z,51.47
2022-11-30T20:29:56.380Z,58.92
2022-11-30T20:32:26.256Z,57.05
2022-11-30T20:34:53.487Z,59.78
2022-11-30T20:37:20.753Z,64.28
2022-11-30T20:39:47.996Z,63.33
2022-11-30T20:42:15.198Z,69.30
2022-11-30T20:44:42.408Z,66.35
2022-11-30T20:47:11.284Z,63.38
2022-11-30T20:49:38.590Z,60.85
2022-11-30T20:52:05.888Z,64.55
2022-11-30T20:54:35.530Z,58.78
2022-11-30T20:57:02.725Z,59.17
2022-11-30T20:59:29.918Z,70.63
2022-11-30T21:01:58.213Z,54.10
2022-11-30T21:04:26.083Z,64.85
2022-11-30T21:06:54.031Z,63.72
2022-11-30T21:09:23.633Z,58.95
2022-11-30T21:11:50.838Z,62.65
2022-11-30T21:14:20.622Z,75.55
2022-11-30T21:16:47.869Z,58.95
2022-11-30T21:19:15.458Z,67.43
2022-11-30T21:21:45.028Z,71.05
2022-11-30T21:24:15.009Z,58.45
2022-11-30T21:26:43.430Z,56.42
2022-11-30T21:29:12.125Z,67.25
2022-11-30T21:31:39.408Z,52.95
2022-11-30T21:34:07.051Z,50.90
2022-11-30T21:36:34.527Z,51.85
2022-11-30T21:39:06.082Z,57.45
2022-11-30T21:41:34.992Z,54.50
2022-11-30T21:44:02.386Z,61.83
2022-11-30T21:46:31.823Z,51.17
2022-11-30T21:48:59.191Z,55.67
2022-11-30T21:51:27.458Z,57.42
2022-11-30T21:53:55.926Z,46.13
2022-11-30T21:56:24.517Z,47.92
2022-11-30T21:58:52.098Z,46.90
2022-11-30T22:01:20.898Z,52.63
2022-11-30T22:03:48.337Z,53.67
2022-11-30T22:06:18.266Z,60.72
2022-11-30T22:08:45.989Z,52.42
2022-11-30T22:11:14.848Z,48.17
2022-11-30T22:13:42.463Z,49.45
2022-11-30T22:16:11.112Z,54.88
2022-11-30T22:18:38.638Z,45.85
2022-11-30T22:21:07.181Z,49.88
2022-11-30T22:23:35.156Z,62.65
2022-11-30T22:26:16.610Z,53.38
2022-11-30T22:28:44.752Z,53.13
2022-11-30T22:31:13.309Z,57.65
2022-11-30T22:33:41.657Z,61.45
2022-11-30T22:36:10.697Z,47.45
2022-11-30T22:38:38.060Z,58.08
2022-11-30T22:41:06.207Z,56.97
2022-11-30T22:43:34.059Z,59.72
2022-11-30T22:46:05.789Z,50.15
2022-11-30T22:48:33.540Z,53.17
2022-11-30T22:51:08.027Z,62.22
2022-11-30T22:53:36.291Z,65.70
2022-11-30T22:56:05.041Z,66.45
2022-11-30T22:58:32.489Z,55.35
2022-11-30T23:01:07.553Z,49.13
2022-11-30T23:03:35.048Z,53.25
2022-11-30T23:06:02.546Z,66.30
2022-11-30T23:08:30.485Z,61.92
2022-11-30T23:10:59.645Z,61.63
2022-11-30T23:13:27.215Z,60.63
2022-11-30T23:15:57.513Z,61.00
2022-11-30T23:18:24.938Z,63.75
2022-11-30T23:20:52.172Z,62.88
2022-11-30T23:23:19.407Z,64.90
2022-11-30T23:25:46.684Z,62.90
2022-11-30T23:28:13.916Z,66.18
2022-11-30T23:30:41.167Z,69.85
2022-11-30T23:33:08.460Z,62.85
2022-11-30T23:35:35.668Z,64.93
2022-11-30T23:38:02.851Z,62.70
2022-11-30T23:40:30.129Z,61.42
2022-11-30T23:42:57.343Z,62.65
2022-11-30T23:45:24.549Z,49.72
2022-11-30T23:47:51.742Z,56.03
2022-11-30T23:50:18.979Z,56.80
2022-11-30T23:52:46.178Z,58.95
2022-11-30T23:55:13.441Z,70.43
2022-11-30T23:57:40.657Z,63.22
